Time;durP1;ratioP1;P1;durP2;ratioP2;P2;SDS_P1;SDS_P2;PMS_P1;PMS_P2;Temp;Humidity;BMP_temperature;BMP_pressure;BME280_temperature;BME280_humidity;BME280_pressure;Samples;Min_cycle;Max_cycle;Signal;HPM_P1;HPM_P2
2022/07/05 00:00:00;;;;;;;8.43;3.15;;;13.80;99.90;;;;;;6151925;23;20033;-84
2022/07/05 00:02:26;;;;;;;9.32;3.38;;;14.50;99.90;;;;;;6153374;23;20033;-84
2022/07/05 00:04:51;;;;;;;8.73;3.20;;;13.70;99.90;;;;;;6155113;23;20018;-84
2022/07/05 00:07:18;;;;;;;8.50;3.50;;;13.60;99.90;;;;;;6152743;23;20072;-84
2022/07/05 00:09:45;;;;;;;9.40;3.78;;;13.60;99.90;;;;;;6156788;23;20681;-83
2022/07/05 00:12:13;;;;;;;11.25;3.88;;;13.50;99.90;;;;;;6156562;23;20014;-84
2022/07/05 00:14:39;;;;;;;10.68;3.95;;;13.40;99.90;;;;;;6156191;23;20025;-84
2022/07/05 00:17:04;;;;;;;9.20;3.65;;;13.30;99.90;;;;;;6155515;23;20014;-84
2022/07/05 00:19:31;;;;;;;9.15;3.70;;;13.30;99.90;;;;;;6157126;23;20014;-84
2022/07/05 00:21:57;;;;;;;9.15;3.75;;;13.20;99.90;;;;;;6155947;23;20342;-84
2022/07/05 00:24:23;;;;;;;8.80;3.78;;;13.10;99.90;;;;;;6154948;23;20021;-84
2022/07/05 00:26:52;;;;;;;10.60;4.25;;;13.00;99.90;;;;;;6157140;23;20045;-84
2022/07/05 00:29:18;;;;;;;10.23;3.97;;;13.00;99.90;;;;;;6153950;23;20101;-84
2022/07/05 00:31:43;;;;;;;9.27;3.90;;;12.90;99.90;;;;;;6156854;23;20013;-83
2022/07/05 00:34:09;;;;;;;11.48;3.88;;;13.30;99.90;;;;;;6155705;23;20018;-84
2022/07/05 00:36:35;;;;;;;9.95;3.78;;;12.80;99.90;;;;;;6156221;23;20025;-84
2022/07/05 00:39:00;;;;;;;10.93;4.18;;;12.70;99.90;;;;;;6156937;23;20103;-84
2022/07/05 00:41:26;;;;;;;10.13;3.97;;;12.80;99.90;;;;;;6157119;23;20037;-84
2022/07/05 00:44:01;;;;;;;9.90;3.80;;;12.70;99.90;;;;;;6154064;23;20017;-84
2022/07/05 00:46:27;;;;;;;10.35;4.38;;;12.70;99.90;;;;;;6156975;23;20415;-84
2022/07/05 00:48:53;;;;;;;13.20;4.68;;;12.60;99.90;;;;;;6154950;23;20014;-84
2022/07/05 00:51:22;;;;;;;10.60;4.60;;;12.60;99.90;;;;;;6156362;23;20059;-84
2022/07/05 00:53:48;;;;;;;9.00;3.88;;;12.70;99.90;;;;;;6156112;23;20465;-84
2022/07/05 00:56:15;;;;;;;10.63;4.40;;;12.50;99.90;;;;;;6129684;23;20017;-84
2022/07/05 00:58:41;;;;;;;11.30;4.18;;;12.40;99.90;;;;;;6156826;23;20018;-84
2022/07/05 01:01:09;;;;;;;10.32;4.30;;;12.40;99.90;;;;;;6154896;23;20101;-84
2022/07/05 01:03:35;;;;;;;10.27;4.07;;;12.30;99.90;;;;;;6153862;23;20014;-84
2022/07/05 01:06:02;;;;;;;11.30;5.47;;;12.30;99.90;;;;;;6154779;23;20025;-84
2022/07/05 01:08:29;;;;;;;9.05;4.18;;;12.20;99.90;;;;;;6156917;23;20057;-84
2022/07/05 01:10:55;;;;;;;10.60;4.68;;;13.00;99.90;;;;;;6155852;23;20454;-84
2022/07/05 01:13:23;;;;;;;9.63;4.45;;;12.10;99.90;;;;;;6155008;23;20018;-84
2022/07/05 01:15:49;;;;;;;10.00;4.18;;;12.10;99.90;;;;;;6154325;23;20017;-84
2022/07/05 01:18:15;;;;;;;11.07;4.40;;;12.10;99.90;;;;;;6153835;23;20049;-84
2022/07/05 01:20:41;;;;;;;9.85;4.45;;;12.00;99.90;;;;;;6154184;23;20071;-84
2022/07/05 01:23:08;;;;;;;10.15;4.40;;;12.60;99.90;;;;;;6155046;23;20022;-84
2022/07/05 01:25:34;;;;;;;10.40;4.20;;;11.90;99.90;;;;;;6154199;23;20423;-84
2022/07/05 01:28:02;;;;;;;9.65;3.80;;;11.90;99.90;;;;;;6156277;23;20064;-84
2022/07/05 01:30:28;;;;;;;9.73;4.47;;;11.80;99.90;;;;;;6154659;23;20490;-84
2022/07/05 01:32:53;;;;;;;10.07;4.78;;;11.80;99.90;;;;;;6153413;23;20092;-84
2022/07/05 01:35:23;;;;;;;10.25;4.45;;;11.80;99.90;;;;;;6154777;23;20016;-84
2022/07/05 01:37:50;;;;;;;11.10;4.95;;;11.80;99.90;;;;;;6154500;23;20346;-84
2022/07/05 01:40:16;;;;;;;11.10;4.57;;;11.80;99.90;;;;;;6153349;23;20347;-84
2022/07/05 01:42:42;;;;;;;10.60;4.32;;;11.70;99.90;;;;;;6153987;23;20104;-84
2022/07/05 01:45:08;;;;;;;13.70;4.80;;;12.30;99.90;;;;;;6154384;23;20436;-84
2022/07/05 01:47:44;;;;;;;10.40;5.05;;;11.60;99.90;;;;;;6153650;23;20473;-84
2022/07/05 01:50:16;;;;;;;11.90;5.20;;;11.60;99.90;;;;;;6154619;23;20443;-84
2022/07/05 01:52:46;;;;;;;10.60;5.68;;;11.60;99.90;;;;;;6153081;23;20017;-84
2022/07/05 01:55:12;;;;;;;11.35;5.28;;;11.60;99.90;;;;;;6154746;23;20083;-84
2022/07/05 01:57:39;;;;;;;11.30;5.20;;;11.60;99.90;;;;;;6154050;23;20017;-84
2022/07/05 02:00:05;;;;;;;12.77;6.00;;;11.50;99.90;;;;;;6153389;23;20017;-84
2022/07/05 02:02:30;;;;;;;11.90;6.03;;;11.60;99.90;;;;;;6154243;23;20023;-84
2022/07/05 02:04:56;;;;;;;11.15;5.80;;;11.50;99.90;;;;;;6155415;23;20021;-84
2022/07/05 02:07:21;;;;;;;11.63;5.88;;;11.50;99.90;;;;;;6155462;23;20431;-84
2022/07/05 02:09:47;;;;;;;14.63;6.38;;;11.50;99.90;;;;;;6152196;23;20120;-84
2022/07/05 02:12:13;;;;;;;14.50;7.38;;;12.20;99.90;;;;;;6154321;23;20013;-84
2022/07/05 02:14:57;;;;;;;12.80;6.97;;;10.70;99.90;;;;;;6153538;23;20100;-84
2022/07/05 02:17:39;;;;;;;14.75;7.30;;;12.60;99.90;;;;;;6156603;23;20442;-84
2022/07/05 02:20:05;;;;;;;14.50;7.40;;;11.60;99.90;;;;;;6154297;23;20049;-84
2022/07/05 02:22:37;;;;;;;14.75;7.60;;;11.70;99.90;;;;;;6153560;23;20460;-84
2022/07/05 02:25:06;;;;;;;14.45;7.68;;;11.50;99.90;;;;;;6155910;23;20018;-84
2022/07/05 02:27:47;;;;;;;14.68;6.75;;;11.70;99.90;;;;;;6154919;23;20354;-84
2022/07/05 02:30:27;;;;;;;13.70;7.30;;;13.00;99.90;;;;;;6154294;23;20508;-84
2022/07/05 02:33:05;;;;;;;14.70;7.10;;;12.40;99.90;;;;;;6153101;23;20044;-84
2022/07/05 02:35:46;;;;;;;12.88;7.32;;;11.80;99.90;;;;;;6155259;23;20018;-84
2022/07/05 02:38:14;;;;;;;14.05;7.47;;;11.60;99.90;;;;;;6155950;23;20089;-84
2022/07/05 02:40:48;;;;;;;13.88;7.28;;;12.70;99.90;;;;;;6155605;23;20327;-84
2022/07/05 02:43:17;;;;;;;14.68;7.60;;;13.00;99.90;;;;;;6154793;23;20010;-84
2022/07/05 02:45:46;;;;;;;15.65;7.57;;;12.60;99.90;;;;;;6155368;23;20367;-84
2022/07/05 02:48:11;;;;;;;14.27;7.03;;;11.70;99.90;;;;;;6155272;23;20032;-84
2022/07/05 02:50:49;;;;;;;14.60;6.75;;;12.50;99.90;;;;;;6152867;23;20096;-84
2022/07/05 02:53:18;;;;;;;16.63;7.78;;;10.90;99.90;;;;;;6154136;23;20021;-84
2022/07/05 02:55:44;;;;;;;13.73;7.20;;;11.80;99.90;;;;;;6140753;23;20390;-85
2022/07/05 02:58:19;;;;;;;13.55;7.60;;;11.60;99.90;;;;;;6154184;23;20079;-84
2022/07/05 03:00:48;;;;;;;14.38;7.53;;;11.70;99.90;;;;;;6155117;23;20442;-84
2022/07/05 03:03:15;;;;;;;14.13;7.47;;;12.70;99.90;;;;;;6147613;23;20492;-85
2022/07/05 03:05:44;;;;;;;14.95;7.45;;;12.50;99.90;;;;;;6153481;23;20345;-85
2022/07/05 03:08:13;;;;;;;14.40;7.50;;;12.20;99.90;;;;;;6155977;23;20088;-85
2022/07/05 03:10:44;;;;;;;14.93;8.00;;;12.90;99.90;;;;;;6152925;23;20076;-85
2022/07/05 03:13:13;;;;;;;14.93;7.50;;;11.70;99.90;;;;;;6148721;23;20116;-84
2022/07/05 03:15:45;;;;;;;15.63;7.50;;;11.10;99.90;;;;;;6153208;23;20018;-85
2022/07/05 03:18:10;;;;;;;14.32;7.65;;;12.70;99.90;;;;;;6154920;23;20022;-85
2022/07/05 03:21:23;;;;;;;14.63;7.82;;;12.90;99.90;;;;;;6153448;23;20068;-85
2022/07/05 03:23:58;;;;;;;14.13;7.55;;;11.90;99.90;;;;;;6106442;23;20097;-85
2022/07/05 03:26:32;;;;;;;14.15;7.55;;;12.20;99.90;;;;;;6153592;23;20044;-85
2022/07/05 03:28:58;;;;;;;17.77;7.70;;;11.60;99.90;;;;;;6155264;23;20045;-85
2022/07/05 03:31:52;;;;;;;14.73;7.53;;;11.50;99.90;;;;;;6154821;23;20515;-85
2022/07/05 03:34:20;;;;;;;15.38;7.43;;;11.50;99.90;;;;;;6155528;23;20013;-85
2022/07/05 03:36:49;;;;;;;13.68;7.20;;;11.50;99.90;;;;;;6154930;23;20087;-85
2022/07/05 03:39:18;;;;;;;13.50;7.13;;;11.50;99.90;;;;;;6154926;23;20021;-85
2022/07/05 03:41:43;;;;;;;16.23;7.82;;;11.40;99.90;;;;;;6153491;23;20090;-85
2022/07/05 03:44:17;;;;;;;18.27;7.60;;;11.40;99.90;;;;;;6155159;23;20066;-85
2022/07/05 03:46:48;;;;;;;15.00;7.70;;;11.80;99.90;;;;;;6152448;23;20386;-85
2022/07/05 03:49:14;;;;;;;15.25;7.55;;;12.00;99.90;;;;;;6155418;23;20028;-85
2022/07/05 03:51:40;;;;;;;12.93;6.93;;;12.60;99.90;;;;;;6153498;23;20017;-85
2022/07/05 03:54:05;;;;;;;14.35;7.53;;;11.40;99.90;;;;;;6154250;23;20032;-85
2022/07/05 03:56:31;;;;;;;13.48;7.32;;;12.40;99.90;;;;;;6155559;23;20041;-85
2022/07/05 03:58:56;;;;;;;14.85;7.25;;;11.40;99.90;;;;;;6152427;23;20023;-84
2022/07/05 04:01:22;;;;;;;14.38;7.53;;;11.40;99.90;;;;;;6155001;23;20014;-85
2022/07/05 04:03:48;;;;;;;14.45;7.60;;;11.40;99.90;;;;;;6153073;23;20386;-85
2022/07/05 04:06:14;;;;;;;16.13;8.68;;;11.50;99.90;;;;;;6154078;23;20020;-84
2022/07/05 04:08:40;;;;;;;15.32;8.65;;;12.10;99.90;;;;;;6153144;23;20029;-85
2022/07/05 04:11:07;;;;;;;15.63;7.22;;;11.60;99.90;;;;;;6155038;23;20025;-85
2022/07/05 04:13:33;;;;;;;14.85;8.38;;;11.60;99.90;;;;;;6152469;23;20017;-85
2022/07/05 04:15:59;;;;;;;16.33;9.38;;;11.60;99.90;;;;;;6153019;23;20351;-85
2022/07/05 04:18:25;;;;;;;16.70;8.30;;;11.60;99.90;;;;;;6155106;23;20010;-85
2022/07/05 04:20:50;;;;;;;15.63;8.48;;;11.70;99.90;;;;;;6152374;23;20013;-85
2022/07/05 04:23:16;;;;;;;14.30;7.95;;;12.70;99.90;;;;;;6153117;23;20068;-85
2022/07/05 04:25:41;;;;;;;15.90;9.25;;;11.80;99.90;;;;;;6155017;23;20330;-85
2022/07/05 04:28:07;;;;;;;16.25;8.40;;;11.90;99.90;;;;;;6152154;23;20100;-85
2022/07/05 04:30:33;;;;;;;16.67;8.73;;;12.00;99.90;;;;;;6153053;23;20490;-85
2022/07/05 04:32:58;;;;;;;16.73;8.13;;;12.40;99.90;;;;;;6154552;23;20413;-85
2022/07/05 04:35:24;;;;;;;15.23;8.88;;;12.10;99.90;;;;;;6152245;23;20346;-85
2022/07/05 04:37:49;;;;;;;15.90;9.10;;;12.20;99.90;;;;;;6152303;23;20338;-85
2022/07/05 04:40:15;;;;;;;14.65;8.70;;;12.30;99.90;;;;;;6155452;23;20018;-85
2022/07/05 04:42:41;;;;;;;17.05;9.02;;;12.30;99.90;;;;;;6151840;23;20538;-85
2022/07/05 04:45:08;;;;;;;15.48;8.60;;;12.70;99.90;;;;;;6153275;23;20386;-85
2022/07/05 04:47:34;;;;;;;15.13;8.73;;;12.40;99.90;;;;;;6153867;23;20029;-85
2022/07/05 04:50:00;;;;;;;16.25;8.98;;;12.50;99.90;;;;;;6153677;23;20025;-85
2022/07/05 04:52:26;;;;;;;15.07;8.40;;;12.60;99.90;;;;;;6153257;23;20047;-85
2022/07/05 04:54:51;;;;;;;17.23;8.77;;;12.70;99.90;;;;;;6152967;23;20069;-85
2022/07/05 04:57:17;;;;;;;14.38;7.97;;;12.80;99.90;;;;;;6155752;23;20009;-85
2022/07/05 04:59:43;;;;;;;16.88;8.70;;;12.90;99.90;;;;;;6156270;23;20018;-85
2022/07/05 05:02:08;;;;;;;15.85;8.05;;;13.00;99.90;;;;;;6157123;23;20021;-85
2022/07/05 05:04:34;;;;;;;14.57;7.43;;;13.00;99.90;;;;;;6155818;23;20021;-85
2022/07/05 05:07:00;;;;;;;14.68;8.27;;;13.10;99.90;;;;;;6154678;23;20045;-85
2022/07/05 05:09:32;;;;;;;14.52;8.00;;;13.20;99.90;;;;;;6139951;23;20024;-84
2022/07/05 05:12:00;;;;;;;15.48;8.25;;;13.40;99.90;;;;;;6130196;23;20048;-85
2022/07/05 05:14:34;;;;;;;13.93;8.50;;;14.00;99.90;;;;;;6156620;23;20020;-85
2022/07/05 05:17:06;;;;;;;14.13;7.70;;;14.60;99.90;;;;;;6129045;23;20017;-85
2022/07/05 05:19:44;;;;;;;15.10;7.60;;;13.40;99.90;;;;;;6156829;23;20017;-85
2022/07/05 05:22:25;;;;;;;14.23;7.47;;;14.70;99.90;;;;;;6156460;23;20018;-85
2022/07/05 05:24:53;;;;;;;14.07;7.70;;;13.70;99.90;;;;;;6128680;23;20026;-85
2022/07/05 05:27:18;;;;;;;13.90;7.35;;;13.70;99.90;;;;;;6156376;23;20024;-85
2022/07/05 05:29:49;;;;;;;13.38;7.90;;;13.70;99.90;;;;;;6129638;23;20088;-85
2022/07/05 05:32:26;;;;;;;15.73;7.40;;;14.90;99.90;;;;;;6128926;23;20064;-85
2022/07/05 05:35:01;;;;;;;13.65;7.80;;;14.80;99.90;;;;;;6129828;23;20017;-85
2022/07/05 05:42:36;;;;;;;12.75;6.53;;;14.30;99.90;;;;;;6126783;23;20022;-85
2022/07/05 05:45:06;;;;;;;12.70;7.20;;;15.00;99.90;;;;;;6099215;23;20485;-85
2022/07/05 05:47:59;;;;;;;13.93;7.03;;;14.50;99.90;;;;;;6101080;23;20018;-85
2022/07/05 05:51:15;;;;;;;11.63;6.57;;;14.50;99.90;;;;;;6127121;23;20089;-83
2022/07/05 05:53:46;;;;;;;13.15;7.05;;;14.60;99.90;;;;;;5984049;23;20024;-86
2022/07/05 05:56:42;;;;;;;11.77;6.57;;;15.90;99.90;;;;;;6009389;23;20019;-86
2022/07/05 05:59:31;;;;;;;13.10;6.72;;;14.80;99.90;;;;;;5987758;23;20031;-86
2022/07/05 06:06:43;;;;;;;14.25;6.88;;;14.90;99.90;;;;;;6125402;23;20022;-85
2022/07/05 06:16:40;;;;;;;10.20;4.75;;;15.10;99.90;;;;;;6133743;23;20134;-89
2022/07/05 06:19:46;;;;;;;11.85;5.07;;;15.50;99.90;;;;;;6156333;23;20028;-89
2022/07/05 06:22:36;;;;;;;11.30;5.80;;;15.70;99.90;;;;;;6128927;23;20072;-89
2022/07/05 06:25:18;;;;;;;10.55;5.43;;;15.90;99.90;;;;;;6129596;23;20013;-87
2022/07/05 06:47:01;;;;;;;;;;;16.60;99.90;;;;;;6156116;23;20021;-87
2022/07/05 06:50:19;;;;;;;8.90;3.70;;;17.40;99.90;;;;;;6155092;23;19911;-87
2022/07/05 06:53:09;;;;;;;9.30;3.35;;;16.90;99.90;;;;;;6155244;23;20014;-88
2022/07/05 06:56:15;;;;;;;8.57;2.92;;;17.00;99.90;;;;;;6154462;23;20099;-88
2022/07/05 07:06:18;;;;;;;8.30;2.63;;;17.30;99.90;;;;;;6154968;23;20021;-88
2022/07/05 07:12:29;;;;;;;9.40;2.97;;;17.70;99.90;;;;;;6155372;23;20020;-88
2022/07/05 07:15:23;;;;;;;9.80;3.47;;;17.70;99.90;;;;;;6041341;23;20018;-88
2022/07/05 07:18:01;;;;;;;9.05;2.90;;;17.80;99.90;;;;;;6127336;23;20457;-88
2022/07/05 07:21:29;;;;;;;7.28;2.80;;;17.90;99.90;;;;;;6155596;23;20092;-88
2022/07/05 07:28:24;;;;;;;;;;;;;;;;;;;;;
2022/07/05 07:31:23;;;;;;;7.18;2.47;;;18.10;99.90;;;;;;5923035;24;20021;-89
2022/07/05 07:37:00;;;;;;;7.07;2.50;;;18.50;99.90;;;;;;6146135;23;20462;-88
2022/07/05 08:26:47;;;;;;;6.97;1.92;;;18.90;99.90;;;;;;5950868;24;20028;-88
2022/07/05 08:58:12;;;;;;;6.17;1.80;;;19.90;99.90;;;;;;6186589;23;20075;-87
2022/07/05 09:05:01;;;;;;;7.35;1.73;;;19.30;99.90;;;;;;6201159;23;20075;-91
2022/07/05 09:11:14;;;;;;;6.07;1.90;;;19.20;99.90;;;;;;6186039;23;19911;-88
2022/07/05 09:13:58;;;;;;;7.68;1.95;;;19.70;99.90;;;;;;6183757;23;20113;-87
2022/07/05 10:56:14;;;;;;;6.85;1.95;;;20.20;99.90;;;;;;6173413;23;20017;-87
2022/07/05 10:59:14;;;;;;;5.15;1.60;;;20.20;99.90;;;;;;6157211;23;20103;-85
2022/07/05 11:18:42;;;;;;;9.88;2.10;;;20.50;99.90;;;;;;6182129;23;20021;-87
2022/07/05 11:21:22;;;;;;;7.30;1.88;;;20.40;99.90;;;;;;6184785;23;20438;-86
2022/07/05 11:24:08;;;;;;;7.22;2.10;;;20.40;99.90;;;;;;6184378;23;20084;-85
2022/07/05 11:26:40;;;;;;;7.15;1.85;;;20.80;99.90;;;;;;6184138;23;20017;-85
2022/07/05 11:29:43;;;;;;;6.38;2.00;;;21.20;99.90;;;;;;6157497;23;20009;-86
2022/07/05 11:32:22;;;;;;;7.30;1.80;;;21.30;99.90;;;;;;6185310;23;20160;-87
2022/07/05 12:31:36;;;;;;;5.82;1.92;;;19.90;99.90;;;;;;6184846;23;20016;-87
2022/07/05 12:38:23;;;;;;;6.18;1.95;;;20.30;99.90;;;;;;6184755;23;20031;-87
2022/07/05 14:22:44;;;;;;;5.03;1.50;;;21.90;96.50;;;;;;6196568;23;20107;-87
2022/07/05 14:37:06;;;;;;;4.32;1.50;;;22.50;94.30;;;;;;6154978;23;20019;-86
2022/07/05 14:46:59;;;;;;;4.30;1.40;;;22.00;93.80;;;;;;6127871;23;20021;-86
2022/07/05 14:53:42;;;;;;;3.60;1.42;;;21.50;94.40;;;;;;5979774;23;20027;-86
2022/07/05 16:36:35;;;;;;;5.40;1.65;;;21.50;94.40;;;;;;6185524;23;20024;-88
2022/07/05 16:43:11;;;;;;;5.93;1.90;;;21.70;93.90;;;;;;6174225;23;20035;-87
2022/07/05 16:45:52;;;;;;;5.85;1.60;;;21.40;94.10;;;;;;6183055;23;20023;-85
2022/07/05 20:16:18;;;;;;;5.65;1.90;;;15.90;99.90;;;;;;6174020;23;20478;-95
2022/07/05 21:43:38;;;;;;;6.05;2.00;;;13.80;99.90;;;;;;6185737;23;20027;-89
2022/07/05 21:46:16;;;;;;;8.38;2.22;;;14.20;99.90;;;;;;6158721;23;20017;-89
2022/07/05 21:49:06;;;;;;;6.57;2.10;;;15.30;99.90;;;;;;6185185;23;20017;-90
2022/07/05 21:51:51;;;;;;;;;;;;;;;;;;;;;
2022/07/05 21:54:32;;;;;;;9.68;2.45;;;15.20;99.90;;;;;;6065162;23;20025;-90
2022/07/05 22:06:29;;;;;;;6.30;2.03;;;13.90;99.90;;;;;;6155962;23;20021;-90
2022/07/05 22:09:10;;;;;;;6.75;2.15;;;13.80;99.90;;;;;;6155111;23;20399;-91
2022/07/05 22:11:46;;;;;;;7.97;2.40;;;13.80;99.90;;;;;;6129749;23;20017;-90
2022/07/05 22:14:36;;;;;;;8.75;2.22;;;14.90;99.90;;;;;;6156700;23;20111;-90
2022/07/05 22:17:09;;;;;;;8.02;2.20;;;14.50;99.90;;;;;;6129520;23;20097;-91
2022/07/05 22:19:53;;;;;;;6.60;2.10;;;14.80;99.90;;;;;;6130371;23;20075;-91
2022/07/05 22:23:01;;;;;;;7.60;2.20;;;14.80;99.90;;;;;;6155160;23;20439;-90
2022/07/05 22:28:09;;;;;;;8.07;2.33;;;13.50;99.90;;;;;;6178240;23;20083;-90
2022/07/05 22:30:41;;;;;;;8.27;2.33;;;13.60;99.90;;;;;;6158280;23;20017;-90
2022/07/05 22:36:12;;;;;;;7.30;2.20;;;14.30;99.90;;;;;;6159726;23;20025;-92
2022/07/05 22:38:53;;;;;;;8.68;2.72;;;14.50;99.90;;;;;;6185227;23;20013;-92
2022/07/05 22:41:43;;;;;;;7.25;2.20;;;14.60;99.90;;;;;;6159062;23;20017;-91
2022/07/05 22:44:09;;;;;;;8.38;2.05;;;13.40;99.90;;;;;;6158345;23;20136;-89
2022/07/05 22:47:37;;;;;;;7.90;2.30;;;13.00;99.90;;;;;;6157548;23;20423;-94
2022/07/05 22:51:10;;;;;;;8.80;2.30;;;13.20;99.90;;;;;;6158939;23;20461;-90
2022/07/05 22:54:04;;;;;;;8.38;2.33;;;13.10;99.90;;;;;;6184675;23;20037;-90
2022/07/05 22:56:42;;;;;;;8.10;2.20;;;13.20;99.90;;;;;;6159330;23;20028;-91
2022/07/05 22:59:25;;;;;;;6.43;2.20;;;13.30;99.90;;;;;;6159276;23;20437;-92
2022/07/05 23:02:03;;;;;;;7.97;2.22;;;13.10;99.90;;;;;;6158395;23;20017;-90
2022/07/05 23:04:38;;;;;;;9.57;2.55;;;13.80;99.90;;;;;;6185870;23;20009;-91
2022/07/05 23:07:16;;;;;;;7.60;2.22;;;13.10;99.90;;;;;;6185569;23;20024;-92
2022/07/05 23:12:28;;;;;;;9.38;2.33;;;13.10;99.90;;;;;;6156292;23;20088;-91
2022/07/05 23:14:54;;;;;;;7.97;2.47;;;13.60;99.90;;;;;;6129218;23;20423;-91
2022/07/05 23:21:15;;;;;;;8.95;2.50;;;13.10;99.90;;;;;;6157362;23;20033;-91
2022/07/05 23:27:49;;;;;;;8.95;2.40;;;13.00;99.90;;;;;;6157803;23;20017;-91
2022/07/05 23:30:34;;;;;;;6.90;2.30;;;13.10;99.90;;;;;;6158979;23;20345;-91
2022/07/05 23:33:05;;;;;;;7.10;2.20;;;13.10;99.90;;;;;;6184904;23;20415;-92
2022/07/05 23:35:31;;;;;;;9.82;2.42;;;12.80;99.90;;;;;;6184913;23;20020;-91
2022/07/05 23:38:00;;;;;;;7.60;2.33;;;12.70;99.90;;;;;;6159139;23;20025;-91
2022/07/05 23:40:41;;;;;;;7.53;2.60;;;13.90;99.90;;;;;;6159055;23;20214;-92
2022/07/05 23:43:16;;;;;;;7.35;2.20;;;13.20;99.90;;;;;;6159021;23;20473;-92
2022/07/05 23:46:08;;;;;;;10.80;2.25;;;12.70;99.90;;;;;;6185022;23;20049;-91
2022/07/05 23:48:35;;;;;;;9.05;2.20;;;13.30;99.90;;;;;;6084470;23;20096;-90
2022/07/05 23:51:55;;;;;;;8.18;2.30;;;13.20;99.90;;;;;;6142679;23;20063;-90
2022/07/05 23:54:40;;;;;;;;;;;;;;;;;;;;;
2022/07/05 23:57:31;;;;;;;8.25;2.42;;;13.90;99.90;;;;;;6104691;23;20017;-92
